sensor_id;sensor_type;location;lat;lon;timestamp;temperature;humidity
20750;DHT22;10535;50.664;4.564;2022-07-24T00:00:54;18.80;99.90
20750;DHT22;10535;50.664;4.564;2022-07-24T00:03:21;18.90;99.90
20750;DHT22;10535;50.664;4.564;2022-07-24T00:05:47;18.80;99.90
20750;DHT22;10535;50.664;4.564;2022-07-24T00:08:17;18.80;99.90
20750;DHT22;10535;50.664;4.564;2022-07-24T00:10:44;18.80;99.90
20750;DHT22;10535;50.664;4.564;2022-07-24T00:13:12;18.70;99.90
20750;DHT22;10535;50.664;4.564;2022-07-24T00:15:39;18.70;99.90
20750;DHT22;10535;50.664;4.564;2022-07-24T00:18:06;18.70;99.90
20750;DHT22;10535;50.664;4.564;2022-07-24T00:20:36;18.60;99.90
20750;DHT22;10535;50.664;4.564;2022-07-24T00:23:03;18.50;99.90
20750;DHT22;10535;50.664;4.564;2022-07-24T00:25:29;18.50;99.90
20750;DHT22;10535;50.664;4.564;2022-07-24T00:27:57;18.60;99.90
20750;DHT22;10535;50.664;4.564;2022-07-24T00:30:24;18.60;99.90
20750;DHT22;10535;50.664;4.564;2022-07-24T00:32:52;18.60;99.90
20750;DHT22;10535;50.664;4.564;2022-07-24T00:35:21;18.50;99.90
20750;DHT22;10535;50.664;4.564;2022-07-24T00:37:59;18.50;99.90
20750;DHT22;10535;50.664;4.564;2022-07-24T00:40:24;18.30;99.90
20750;DHT22;10535;50.664;4.564;2022-07-24T00:42:52;18.40;99.90
20750;DHT22;10535;50.664;4.564;2022-07-24T00:45:18;18.30;99.90
20750;DHT22;10535;50.664;4.564;2022-07-24T00:47:45;18.30;99.90
20750;DHT22;10535;50.664;4.564;2022-07-24T00:50:11;18.30;99.90
20750;DHT22;10535;50.664;4.564;2022-07-24T00:52:37;18.20;99.90
20750;DHT22;10535;50.664;4.564;2022-07-24T00:55:04;18.20;99.90
20750;DHT22;10535;50.664;4.564;2022-07-24T00:57:30;18.20;99.90
20750;DHT22;10535;50.664;4.564;2022-07-24T00:59:57;18.20;99.90
20750;DHT22;10535;50.664;4.564;2022-07-24T01:02:24;18.20;99.90
20750;DHT22;10535;50.664;4.564;2022-07-24T01:04:50;18.10;99.90
20750;DHT22;10535;50.664;4.564;2022-07-24T01:07:16;18.10;99.90
20750;DHT22;10535;50.664;4.564;2022-07-24T01:09:44;18.00;99.90
20750;DHT22;10535;50.664;4.564;2022-07-24T01:12:10;18.00;99.90
20750;DHT22;10535;50.664;4.564;2022-07-24T01:14:38;18.00;99.90
20750;DHT22;10535;50.664;4.564;2022-07-24T01:17:05;18.00;99.90
20750;DHT22;10535;50.664;4.564;2022-07-24T01:19:31;17.90;99.90
20750;DHT22;10535;50.664;4.564;2022-07-24T01:21:58;18.00;99.90
20750;DHT22;10535;50.664;4.564;2022-07-24T01:24:25;18.00;99.90
20750;DHT22;10535;50.664;4.564;2022-07-24T01:26:52;18.00;99.90
20750;DHT22;10535;50.664;4.564;2022-07-24T01:29:19;17.90;99.90
20750;DHT22;10535;50.664;4.564;2022-07-24T01:31:44;17.90;99.90
20750;DHT22;10535;50.664;4.564;2022-07-24T01:34:10;17.90;99.90
20750;DHT22;10535;50.664;4.564;2022-07-24T01:36:37;17.80;99.90
20750;DHT22;10535;50.664;4.564;2022-07-24T01:39:04;17.80;99.90
20750;DHT22;10535;50.664;4.564;2022-07-24T01:41:30;17.80;99.90
20750;DHT22;10535;50.664;4.564;2022-07-24T01:43:56;17.70;99.90
20750;DHT22;10535;50.664;4.564;2022-07-24T01:46:23;17.60;99.90
20750;DHT22;10535;50.664;4.564;2022-07-24T01:48:51;17.60;99.90
20750;DHT22;10535;50.664;4.564;2022-07-24T01:51:17;17.50;99.90
20750;DHT22;10535;50.664;4.564;2022-07-24T01:53:44;17.40;99.90
20750;DHT22;10535;50.664;4.564;2022-07-24T01:56:09;17.30;99.90
20750;DHT22;10535;50.664;4.564;2022-07-24T01:58:35;17.40;99.90
20750;DHT22;10535;50.664;4.564;2022-07-24T02:01:01;17.50;99.90
20750;DHT22;10535;50.664;4.564;2022-07-24T02:03:28;17.40;99.90
20750;DHT22;10535;50.664;4.564;2022-07-24T02:05:54;17.40;99.90
20750;DHT22;10535;50.664;4.564;2022-07-24T02:08:20;17.40;99.90
20750;DHT22;10535;50.664;4.564;2022-07-24T02:10:46;17.40;99.90
20750;DHT22;10535;50.664;4.564;2022-07-24T02:13:12;17.30;99.90
20750;DHT22;10535;50.664;4.564;2022-07-24T02:15:37;17.20;99.90
20750;DHT22;10535;50.664;4.564;2022-07-24T02:18:03;17.20;99.90
20750;DHT22;10535;50.664;4.564;2022-07-24T02:20:29;17.10;99.90
20750;DHT22;10535;50.664;4.564;2022-07-24T02:22:55;17.10;99.90
20750;DHT22;10535;50.664;4.564;2022-07-24T02:25:21;17.00;99.90
20750;DHT22;10535;50.664;4.564;2022-07-24T02:27:47;17.10;99.90
20750;DHT22;10535;50.664;4.564;2022-07-24T02:30:15;17.10;99.90
20750;DHT22;10535;50.664;4.564;2022-07-24T02:32:41;17.00;99.90
20750;DHT22;10535;50.664;4.564;2022-07-24T02:35:07;17.00;99.90
20750;DHT22;10535;50.664;4.564;2022-07-24T02:37:39;17.10;99.90
20750;DHT22;10535;50.664;4.564;2022-07-24T02:40:05;17.20;99.90
20750;DHT22;10535;50.664;4.564;2022-07-24T02:42:32;17.20;99.90
20750;DHT22;10535;50.664;4.564;2022-07-24T02:44:57;17.10;99.90
20750;DHT22;10535;50.664;4.564;2022-07-24T02:47:23;17.10;99.90
20750;DHT22;10535;50.664;4.564;2022-07-24T02:49:48;17.10;99.90
20750;DHT22;10535;50.664;4.564;2022-07-24T02:52:14;17.00;99.90
20750;DHT22;10535;50.664;4.564;2022-07-24T02:54:40;16.90;99.90
20750;DHT22;10535;50.664;4.564;2022-07-24T02:57:05;16.90;99.90
20750;DHT22;10535;50.664;4.564;2022-07-24T02:59:31;17.00;99.90
20750;DHT22;10535;50.664;4.564;2022-07-24T03:01:57;17.00;99.90
20750;DHT22;10535;50.664;4.564;2022-07-24T03:04:22;16.90;99.90
20750;DHT22;10535;50.664;4.564;2022-07-24T03:06:48;16.80;99.90
20750;DHT22;10535;50.664;4.564;2022-07-24T03:09:14;16.80;99.90
20750;DHT22;10535;50.664;4.564;2022-07-24T03:11:40;16.90;99.90
20750;DHT22;10535;50.664;4.564;2022-07-24T03:14:05;17.10;99.90
20750;DHT22;10535;50.664;4.564;2022-07-24T03:16:31;17.10;99.90
20750;DHT22;10535;50.664;4.564;2022-07-24T03:18:57;17.00;99.90
20750;DHT22;10535;50.664;4.564;2022-07-24T03:21:23;17.00;99.90
20750;DHT22;10535;50.664;4.564;2022-07-24T03:23:49;16.90;99.90
20750;DHT22;10535;50.664;4.564;2022-07-24T03:26:14;16.90;99.90
20750;DHT22;10535;50.664;4.564;2022-07-24T03:28:40;16.80;99.90
20750;DHT22;10535;50.664;4.564;2022-07-24T03:31:05;16.90;99.90
20750;DHT22;10535;50.664;4.564;2022-07-24T03:33:31;16.70;99.90
20750;DHT22;10535;50.664;4.564;2022-07-24T03:35:57;16.70;99.90
20750;DHT22;10535;50.664;4.564;2022-07-24T03:38:22;16.70;99.90
20750;DHT22;10535;50.664;4.564;2022-07-24T03:40:48;16.50;99.90
20750;DHT22;10535;50.664;4.564;2022-07-24T03:43:13;16.40;99.90
20750;DHT22;10535;50.664;4.564;2022-07-24T03:45:39;16.60;99.90
20750;DHT22;10535;50.664;4.564;2022-07-24T03:48:05;16.60;99.90
20750;DHT22;10535;50.664;4.564;2022-07-24T03:50:31;16.60;99.90
20750;DHT22;10535;50.664;4.564;2022-07-24T03:52:56;16.60;99.90
20750;DHT22;10535;50.664;4.564;2022-07-24T03:55:22;16.70;99.90
20750;DHT22;10535;50.664;4.564;2022-07-24T03:57:48;16.60;99.90
20750;DHT22;10535;50.664;4.564;2022-07-24T04:00:14;16.60;99.90
20750;DHT22;10535;50.664;4.564;2022-07-24T04:02:40;16.80;99.90
20750;DHT22;10535;50.664;4.564;2022-07-24T04:05:06;16.80;99.90
20750;DHT22;10535;50.664;4.564;2022-07-24T04:07:35;16.50;99.90
20750;DHT22;10535;50.664;4.564;2022-07-24T04:10:01;16.60;99.90
20750;DHT22;10535;50.664;4.564;2022-07-24T04:12:27;16.70;99.90
20750;DHT22;10535;50.664;4.564;2022-07-24T04:14:53;16.70;99.90
20750;DHT22;10535;50.664;4.564;2022-07-24T04:17:18;16.70;99.90
20750;DHT22;10535;50.664;4.564;2022-07-24T04:19:44;16.70;99.90
20750;DHT22;10535;50.664;4.564;2022-07-24T04:22:09;16.80;99.90
20750;DHT22;10535;50.664;4.564;2022-07-24T04:24:35;16.80;99.90
20750;DHT22;10535;50.664;4.564;2022-07-24T04:27:01;16.80;99.90
20750;DHT22;10535;50.664;4.564;2022-07-24T04:29:26;16.90;99.90
20750;DHT22;10535;50.664;4.564;2022-07-24T04:31:52;16.90;99.90
20750;DHT22;10535;50.664;4.564;2022-07-24T04:34:19;16.80;99.90
20750;DHT22;10535;50.664;4.564;2022-07-24T04:36:44;16.70;99.90
20750;DHT22;10535;50.664;4.564;2022-07-24T04:39:10;16.70;99.90
20750;DHT22;10535;50.664;4.564;2022-07-24T04:41:36;16.60;99.90
20750;DHT22;10535;50.664;4.564;2022-07-24T04:44:01;16.70;99.90
20750;DHT22;10535;50.664;4.564;2022-07-24T04:46:27;16.80;99.90
20750;DHT22;10535;50.664;4.564;2022-07-24T04:48:53;16.80;99.90
20750;DHT22;10535;50.664;4.564;2022-07-24T04:51:18;16.90;99.90
20750;DHT22;10535;50.664;4.564;2022-07-24T04:53:44;16.80;99.90
20750;DHT22;10535;50.664;4.564;2022-07-24T04:56:09;17.00;99.90
20750;DHT22;10535;50.664;4.564;2022-07-24T04:58:35;17.10;99.90
20750;DHT22;10535;50.664;4.564;2022-07-24T05:01:01;17.40;99.90
20750;DHT22;10535;50.664;4.564;2022-07-24T05:03:26;17.60;99.90
20750;DHT22;10535;50.664;4.564;2022-07-24T05:05:52;17.90;99.90
20750;DHT22;10535;50.664;4.564;2022-07-24T05:08:18;18.20;99.90
20750;DHT22;10535;50.664;4.564;2022-07-24T05:10:43;18.70;99.90
20750;DHT22;10535;50.664;4.564;2022-07-24T05:13:09;19.20;99.90
20750;DHT22;10535;50.664;4.564;2022-07-24T05:15:35;19.80;99.90
20750;DHT22;10535;50.664;4.564;2022-07-24T05:18:00;20.30;99.90
20750;DHT22;10535;50.664;4.564;2022-07-24T05:20:26;20.80;99.90
20750;DHT22;10535;50.664;4.564;2022-07-24T05:22:51;21.40;99.90
20750;DHT22;10535;50.664;4.564;2022-07-24T05:25:17;22.00;99.90
20750;DHT22;10535;50.664;4.564;2022-07-24T05:27:43;22.50;99.90
20750;DHT22;10535;50.664;4.564;2022-07-24T05:30:09;22.90;99.90
20750;DHT22;10535;50.664;4.564;2022-07-24T05:32:35;22.90;99.90
20750;DHT22;10535;50.664;4.564;2022-07-24T05:35:01;22.60;99.90
20750;DHT22;10535;50.664;4.564;2022-07-24T05:37:28;22.60;99.90
20750;DHT22;10535;50.664;4.564;2022-07-24T05:39:53;22.80;99.90
20750;DHT22;10535;50.664;4.564;2022-07-24T05:42:19;23.20;99.90
20750;DHT22;10535;50.664;4.564;2022-07-24T05:44:45;23.00;99.90
20750;DHT22;10535;50.664;4.564;2022-07-24T05:47:10;23.20;99.90
20750;DHT22;10535;50.664;4.564;2022-07-24T05:49:36;22.90;99.90
20750;DHT22;10535;50.664;4.564;2022-07-24T05:52:02;22.60;99.90
20750;DHT22;10535;50.664;4.564;2022-07-24T05:54:28;22.60;99.90
20750;DHT22;10535;50.664;4.564;2022-07-24T05:56:53;22.90;99.90
20750;DHT22;10535;50.664;4.564;2022-07-24T05:59:19;23.10;99.90
20750;DHT22;10535;50.664;4.564;2022-07-24T06:01:44;23.10;99.90
20750;DHT22;10535;50.664;4.564;2022-07-24T06:04:10;23.30;99.90
20750;DHT22;10535;50.664;4.564;2022-07-24T06:06:37;22.80;99.90
20750;DHT22;10535;50.664;4.564;2022-07-24T06:09:03;22.70;99.90
20750;DHT22;10535;50.664;4.564;2022-07-24T06:11:29;22.60;99.90
20750;DHT22;10535;50.664;4.564;2022-07-24T06:13:55;22.40;99.90
20750;DHT22;10535;50.664;4.564;2022-07-24T06:16:21;22.20;99.90
20750;DHT22;10535;50.664;4.564;2022-07-24T06:18:46;22.00;99.90
20750;DHT22;10535;50.664;4.564;2022-07-24T06:21:12;22.00;99.90
20750;DHT22;10535;50.664;4.564;2022-07-24T06:23:38;21.90;99.90
20750;DHT22;10535;50.664;4.564;2022-07-24T06:26:04;21.80;99.90
20750;DHT22;10535;50.664;4.564;2022-07-24T06:28:29;21.60;99.90
20750;DHT22;10535;50.664;4.564;2022-07-24T06:30:58;21.50;99.90
20750;DHT22;10535;50.664;4.564;2022-07-24T06:33:23;21.50;99.90
20750;DHT22;10535;50.664;4.564;2022-07-24T06:35:49;21.70;99.90
20750;DHT22;10535;50.664;4.564;2022-07-24T06:38:15;22.00;99.90
20750;DHT22;10535;50.664;4.564;2022-07-24T06:40:42;22.40;99.90
20750;DHT22;10535;50.664;4.564;2022-07-24T06:43:07;22.80;99.90
20750;DHT22;10535;50.664;4.564;2022-07-24T06:45:33;23.40;99.90
20750;DHT22;10535;50.664;4.564;2022-07-24T06:48:00;24.00;99.90
20750;DHT22;10535;50.664;4.564;2022-07-24T06:50:26;24.10;99.90
20750;DHT22;10535;50.664;4.564;2022-07-24T06:52:53;24.10;99.90
20750;DHT22;10535;50.664;4.564;2022-07-24T06:55:18;24.40;99.90
20750;DHT22;10535;50.664;4.564;2022-07-24T06:57:44;24.60;99.90
20750;DHT22;10535;50.664;4.564;2022-07-24T07:00:11;25.10;99.90
20750;DHT22;10535;50.664;4.564;2022-07-24T07:02:37;25.00;99.90
20750;DHT22;10535;50.664;4.564;2022-07-24T07:05:04;25.70;99.90
20750;DHT22;10535;50.664;4.564;2022-07-24T07:07:30;25.50;99.90
20750;DHT22;10535;50.664;4.564;2022-07-24T07:09:56;26.20;99.90
20750;DHT22;10535;50.664;4.564;2022-07-24T07:12:22;26.00;99.90
20750;DHT22;10535;50.664;4.564;2022-07-24T07:14:47;26.60;99.90
20750;DHT22;10535;50.664;4.564;2022-07-24T07:17:13;27.10;99.90
20750;DHT22;10535;50.664;4.564;2022-07-24T07:19:44;27.80;99.90
20750;DHT22;10535;50.664;4.564;2022-07-24T07:22:10;28.20;99.90
20750;DHT22;10535;50.664;4.564;2022-07-24T07:24:36;27.80;99.90
20750;DHT22;10535;50.664;4.564;2022-07-24T07:27:02;27.50;99.90
20750;DHT22;10535;50.664;4.564;2022-07-24T07:29:27;28.00;99.90
20750;DHT22;10535;50.664;4.564;2022-07-24T07:31:54;28.80;99.90
20750;DHT22;10535;50.664;4.564;2022-07-24T07:34:20;29.10;99.90
20750;DHT22;10535;50.664;4.564;2022-07-24T07:36:45;29.00;99.90
20750;DHT22;10535;50.664;4.564;2022-07-24T07:39:11;29.50;99.90
20750;DHT22;10535;50.664;4.564;2022-07-24T07:41:37;29.80;99.90
20750;DHT22;10535;50.664;4.564;2022-07-24T07:44:03;29.80;99.90
20750;DHT22;10535;50.664;4.564;2022-07-24T07:46:29;29.50;99.90
20750;DHT22;10535;50.664;4.564;2022-07-24T07:48:55;29.40;99.90
20750;DHT22;10535;50.664;4.564;2022-07-24T07:51:20;28.70;99.90
20750;DHT22;10535;50.664;4.564;2022-07-24T07:53:46;28.10;99.90
20750;DHT22;10535;50.664;4.564;2022-07-24T07:56:12;27.90;99.90
20750;DHT22;10535;50.664;4.564;2022-07-24T07:58:37;27.70;99.90
20750;DHT22;10535;50.664;4.564;2022-07-24T08:01:03;27.70;99.90
20750;DHT22;10535;50.664;4.564;2022-07-24T08:03:29;27.30;99.90
20750;DHT22;10535;50.664;4.564;2022-07-24T08:05:55;27.20;99.90
20750;DHT22;10535;50.664;4.564;2022-07-24T08:08:21;27.00;99.90
20750;DHT22;10535;50.664;4.564;2022-07-24T08:10:46;27.00;99.90
20750;DHT22;10535;50.664;4.564;2022-07-24T08:13:12;26.90;99.90
20750;DHT22;10535;50.664;4.564;2022-07-24T08:15:40;27.10;99.90
20750;DHT22;10535;50.664;4.564;2022-07-24T08:18:06;27.10;99.90
20750;DHT22;10535;50.664;4.564;2022-07-24T08:20:32;27.00;99.90
20750;DHT22;10535;50.664;4.564;2022-07-24T08:22:59;27.00;99.90
20750;DHT22;10535;50.664;4.564;2022-07-24T08:25:26;27.10;99.90
20750;DHT22;10535;50.664;4.564;2022-07-24T08:27:51;27.10;99.90
20750;DHT22;10535;50.664;4.564;2022-07-24T08:30:17;27.30;99.90
20750;DHT22;10535;50.664;4.564;2022-07-24T08:32:43;27.30;99.90
20750;DHT22;10535;50.664;4.564;2022-07-24T08:35:11;27.10;99.90
20750;DHT22;10535;50.664;4.564;2022-07-24T08:37:38;27.00;99.90
20750;DHT22;10535;50.664;4.564;2022-07-24T08:40:05;27.00;99.90
20750;DHT22;10535;50.664;4.564;2022-07-24T08:42:31;27.10;99.90
20750;DHT22;10535;50.664;4.564;2022-07-24T08:44:57;26.90;99.90
20750;DHT22;10535;50.664;4.564;2022-07-24T08:47:25;27.10;99.90
20750;DHT22;10535;50.664;4.564;2022-07-24T08:49:53;27.10;99.90
20750;DHT22;10535;50.664;4.564;2022-07-24T08:52:21;27.30;99.90
20750;DHT22;10535;50.664;4.564;2022-07-24T08:54:47;27.40;99.90
20750;DHT22;10535;50.664;4.564;2022-07-24T08:57:14;27.50;99.90
20750;DHT22;10535;50.664;4.564;2022-07-24T08:59:40;27.60;99.90
20750;DHT22;10535;50.664;4.564;2022-07-24T09:02:06;27.90;99.90
20750;DHT22;10535;50.664;4.564;2022-07-24T09:04:44;27.80;99.90
20750;DHT22;10535;50.664;4.564;2022-07-24T09:07:13;27.70;99.90
20750;DHT22;10535;50.664;4.564;2022-07-24T09:09:40;27.70;99.90
20750;DHT22;10535;50.664;4.564;2022-07-24T09:12:12;27.70;99.90
20750;DHT22;10535;50.664;4.564;2022-07-24T09:14:46;27.50;99.90
20750;DHT22;10535;50.664;4.564;2022-07-24T09:17:18;27.60;99.90
20750;DHT22;10535;50.664;4.564;2022-07-24T09:27:51;27.20;99.90
20750;DHT22;10535;50.664;4.564;2022-07-24T09:30:37;27.20;99.90
20750;DHT22;10535;50.664;4.564;2022-07-24T09:35:43;27.30;99.90
20750;DHT22;10535;50.664;4.564;2022-07-24T09:38:11;27.20;99.90
20750;DHT22;10535;50.664;4.564;2022-07-24T09:40:41;27.50;99.90
20750;DHT22;10535;50.664;4.564;2022-07-24T09:43:21;27.90;99.90
20750;DHT22;10535;50.664;4.564;2022-07-24T09:46:06;27.90;99.90
20750;DHT22;10535;50.664;4.564;2022-07-24T09:48:48;27.80;99.90
20750;DHT22;10535;50.664;4.564;2022-07-24T09:51:17;28.10;99.90
20750;DHT22;10535;50.664;4.564;2022-07-24T09:53:44;28.30;99.90
20750;DHT22;10535;50.664;4.564;2022-07-24T09:56:13;28.40;99.90
20750;DHT22;10535;50.664;4.564;2022-07-24T10:01:08;28.40;99.90
20750;DHT22;10535;50.664;4.564;2022-07-24T10:03:35;28.50;99.90
20750;DHT22;10535;50.664;4.564;2022-07-24T10:06:05;28.60;99.90
20750;DHT22;10535;50.664;4.564;2022-07-24T10:08:33;28.70;99.90
20750;DHT22;10535;50.664;4.564;2022-07-24T10:10:59;29.00;99.90
20750;DHT22;10535;50.664;4.564;2022-07-24T10:13:26;28.90;99.90
20750;DHT22;10535;50.664;4.564;2022-07-24T10:18:48;28.70;99.90
20750;DHT22;10535;50.664;4.564;2022-07-24T10:21:23;28.70;99.90
20750;DHT22;10535;50.664;4.564;2022-07-24T10:26:42;29.10;99.90
20750;DHT22;10535;50.664;4.564;2022-07-24T10:29:13;29.10;99.90
20750;DHT22;10535;50.664;4.564;2022-07-24T10:31:50;29.40;99.90
20750;DHT22;10535;50.664;4.564;2022-07-24T10:36:55;29.40;99.90
20750;DHT22;10535;50.664;4.564;2022-07-24T10:39:30;29.40;99.90
20750;DHT22;10535;50.664;4.564;2022-07-24T10:42:00;29.30;99.90
20750;DHT22;10535;50.664;4.564;2022-07-24T10:44:26;29.20;99.90
20750;DHT22;10535;50.664;4.564;2022-07-24T10:47:07;28.80;99.90
20750;DHT22;10535;50.664;4.564;2022-07-24T10:52:07;29.20;99.90
20750;DHT22;10535;50.664;4.564;2022-07-24T10:54:33;29.30;99.90
20750;DHT22;10535;50.664;4.564;2022-07-24T10:56:59;29.30;99.90
20750;DHT22;10535;50.664;4.564;2022-07-24T10:59:39;29.40;99.90
20750;DHT22;10535;50.664;4.564;2022-07-24T11:02:34;29.50;99.90
20750;DHT22;10535;50.664;4.564;2022-07-24T11:05:25;29.50;99.90
20750;DHT22;10535;50.664;4.564;2022-07-24T11:10:50;29.70;99.90
20750;DHT22;10535;50.664;4.564;2022-07-24T11:16:25;29.60;99.90
20750;DHT22;10535;50.664;4.564;2022-07-24T11:21:37;29.60;99.90
20750;DHT22;10535;50.664;4.564;2022-07-24T11:24:18;29.80;99.90
20750;DHT22;10535;50.664;4.564;2022-07-24T11:26:55;30.10;99.90
20750;DHT22;10535;50.664;4.564;2022-07-24T11:29:33;30.10;99.90
20750;DHT22;10535;50.664;4.564;2022-07-24T11:32:06;29.80;99.90
20750;DHT22;10535;50.664;4.564;2022-07-24T11:34:34;29.80;99.90
20750;DHT22;10535;50.664;4.564;2022-07-24T11:37:01;30.00;99.90
20750;DHT22;10535;50.664;4.564;2022-07-24T11:39:33;30.00;99.90
20750;DHT22;10535;50.664;4.564;2022-07-24T11:42:01;29.80;99.90
20750;DHT22;10535;50.664;4.564;2022-07-24T11:44:34;30.10;99.90
20750;DHT22;10535;50.664;4.564;2022-07-24T11:47:11;30.20;99.90
20750;DHT22;10535;50.664;4.564;2022-07-24T11:52:30;30.50;99.90
20750;DHT22;10535;50.664;4.564;2022-07-24T11:55:07;30.50;99.90
20750;DHT22;10535;50.664;4.564;2022-07-24T11:57:35;30.50;99.90
20750;DHT22;10535;50.664;4.564;2022-07-24T12:00:03;30.50;99.90
20750;DHT22;10535;50.664;4.564;2022-07-24T12:02:29;30.50;99.90
20750;DHT22;10535;50.664;4.564;2022-07-24T12:04:55;30.70;99.90
20750;DHT22;10535;50.664;4.564;2022-07-24T12:07:24;30.50;99.90
20750;DHT22;10535;50.664;4.564;2022-07-24T12:09:53;30.70;99.90
20750;DHT22;10535;50.664;4.564;2022-07-24T12:17:35;30.80;99.90
20750;DHT22;10535;50.664;4.564;2022-07-24T12:20:20;30.80;99.90
20750;DHT22;10535;50.664;4.564;2022-07-24T12:22:47;31.00;99.90
20750;DHT22;10535;50.664;4.564;2022-07-24T12:25:13;31.10;99.90
20750;DHT22;10535;50.664;4.564;2022-07-24T12:27:44;31.10;99.90
20750;DHT22;10535;50.664;4.564;2022-07-24T12:32:59;31.00;99.90
20750;DHT22;10535;50.664;4.564;2022-07-24T12:35:26;31.10;99.90
20750;DHT22;10535;50.664;4.564;2022-07-24T12:37:52;31.10;99.90
20750;DHT22;10535;50.664;4.564;2022-07-24T12:40:27;31.30;99.90
20750;DHT22;10535;50.664;4.564;2022-07-24T12:43:09;31.30;99.90
20750;DHT22;10535;50.664;4.564;2022-07-24T12:45:35;31.20;99.90
20750;DHT22;10535;50.664;4.564;2022-07-24T12:53:32;31.40;99.90
20750;DHT22;10535;50.664;4.564;2022-07-24T12:58:53;31.30;99.90
20750;DHT22;10535;50.664;4.564;2022-07-24T13:01:20;31.50;99.90
20750;DHT22;10535;50.664;4.564;2022-07-24T13:04:08;31.50;99.90
20750;DHT22;10535;50.664;4.564;2022-07-24T13:06:42;31.70;99.90
20750;DHT22;10535;50.664;4.564;2022-07-24T13:09:10;31.70;99.90
20750;DHT22;10535;50.664;4.564;2022-07-24T13:11:37;31.50;99.90
20750;DHT22;10535;50.664;4.564;2022-07-24T13:14:04;31.40;99.90
20750;DHT22;10535;50.664;4.564;2022-07-24T13:16:31;31.50;99.90
20750;DHT22;10535;50.664;4.564;2022-07-24T13:18:59;31.50;99.90
20750;DHT22;10535;50.664;4.564;2022-07-24T13:21:26;31.60;99.90
20750;DHT22;10535;50.664;4.564;2022-07-24T13:23:53;31.70;99.90
20750;DHT22;10535;50.664;4.564;2022-07-24T13:26:19;31.60;99.90
20750;DHT22;10535;50.664;4.564;2022-07-24T13:28:45;31.80;99.90
20750;DHT22;10535;50.664;4.564;2022-07-24T13:31:12;31.60;99.90
20750;DHT22;10535;50.664;4.564;2022-07-24T13:33:41;31.60;99.90
20750;DHT22;10535;50.664;4.564;2022-07-24T13:36:07;31.70;99.90
20750;DHT22;10535;50.664;4.564;2022-07-24T13:38:33;31.90;99.90
20750;DHT22;10535;50.664;4.564;2022-07-24T13:40:58;31.90;99.90
20750;DHT22;10535;50.664;4.564;2022-07-24T13:43:24;31.90;99.90
20750;DHT22;10535;50.664;4.564;2022-07-24T13:45:51;31.90;99.90
20750;DHT22;10535;50.664;4.564;2022-07-24T13:48:17;31.90;99.90
20750;DHT22;10535;50.664;4.564;2022-07-24T13:50:43;32.00;99.90
20750;DHT22;10535;50.664;4.564;2022-07-24T13:53:08;32.00;99.90
20750;DHT22;10535;50.664;4.564;2022-07-24T13:55:34;31.90;99.90
20750;DHT22;10535;50.664;4.564;2022-07-24T13:58:00;31.80;99.90
20750;DHT22;10535;50.664;4.564;2022-07-24T14:00:25;31.90;99.90
20750;DHT22;10535;50.664;4.564;2022-07-24T14:02:51;32.20;99.90
20750;DHT22;10535;50.664;4.564;2022-07-24T14:05:24;32.10;99.90
20750;DHT22;10535;50.664;4.564;2022-07-24T14:07:50;32.10;99.90
20750;DHT22;10535;50.664;4.564;2022-07-24T14:10:16;32.00;99.90
20750;DHT22;10535;50.664;4.564;2022-07-24T14:12:42;32.00;99.90
20750;DHT22;10535;50.664;4.564;2022-07-24T14:15:07;31.90;99.90
20750;DHT22;10535;50.664;4.564;2022-07-24T14:17:41;31.90;99.90
20750;DHT22;10535;50.664;4.564;2022-07-24T14:20:09;31.90;99.90
20750;DHT22;10535;50.664;4.564;2022-07-24T14:22:35;32.20;99.90
20750;DHT22;10535;50.664;4.564;2022-07-24T14:25:02;32.40;99.90
20750;DHT22;10535;50.664;4.564;2022-07-24T14:27:29;32.50;99.90
20750;DHT22;10535;50.664;4.564;2022-07-24T14:29:54;32.30;99.90
20750;DHT22;10535;50.664;4.564;2022-07-24T14:32:20;32.50;99.90
20750;DHT22;10535;50.664;4.564;2022-07-24T14:34:46;32.50;99.90
20750;DHT22;10535;50.664;4.564;2022-07-24T14:37:12;32.60;99.90
20750;DHT22;10535;50.664;4.564;2022-07-24T14:39:37;32.70;99.90
20750;DHT22;10535;50.664;4.564;2022-07-24T14:42:03;32.60;99.90
20750;DHT22;10535;50.664;4.564;2022-07-24T14:44:29;32.80;99.90
20750;DHT22;10535;50.664;4.564;2022-07-24T14:46:55;32.70;99.90
20750;DHT22;10535;50.664;4.564;2022-07-24T14:49:20;32.70;99.90
20750;DHT22;10535;50.664;4.564;2022-07-24T14:51:46;32.50;99.90
20750;DHT22;10535;50.664;4.564;2022-07-24T14:54:12;32.60;99.90
20750;DHT22;10535;50.664;4.564;2022-07-24T14:56:38;32.60;99.90
20750;DHT22;10535;50.664;4.564;2022-07-24T14:59:04;32.50;99.90
20750;DHT22;10535;50.664;4.564;2022-07-24T15:01:30;32.80;99.90
20750;DHT22;10535;50.664;4.564;2022-07-24T15:03:55;32.50;99.90
20750;DHT22;10535;50.664;4.564;2022-07-24T15:06:21;32.30;99.90
20750;DHT22;10535;50.664;4.564;2022-07-24T15:08:47;32.20;99.90
20750;DHT22;10535;50.664;4.564;2022-07-24T15:11:13;32.30;99.90
20750;DHT22;10535;50.664;4.564;2022-07-24T15:13:39;32.30;99.90
20750;DHT22;10535;50.664;4.564;2022-07-24T15:16:06;32.50;99.90
20750;DHT22;10535;50.664;4.564;2022-07-24T15:18:33;32.50;99.90
20750;DHT22;10535;50.664;4.564;2022-07-24T15:20:58;32.40;99.90
20750;DHT22;10535;50.664;4.564;2022-07-24T15:23:24;32.50;99.90
20750;DHT22;10535;50.664;4.564;2022-07-24T15:25:50;32.40;99.90
20750;DHT22;10535;50.664;4.564;2022-07-24T15:28:16;32.50;99.90
20750;DHT22;10535;50.664;4.564;2022-07-24T15:30:42;32.70;99.90
20750;DHT22;10535;50.664;4.564;2022-07-24T15:33:07;32.70;99.90
20750;DHT22;10535;50.664;4.564;2022-07-24T15:35:34;32.50;99.90
20750;DHT22;10535;50.664;4.564;2022-07-24T15:38:00;32.30;99.90
20750;DHT22;10535;50.664;4.564;2022-07-24T15:40:25;32.30;99.90
20750;DHT22;10535;50.664;4.564;2022-07-24T15:42:53;32.40;99.90
20750;DHT22;10535;50.664;4.564;2022-07-24T15:45:19;32.20;99.90
20750;DHT22;10535;50.664;4.564;2022-07-24T15:47:45;32.10;99.90
20750;DHT22;10535;50.664;4.564;2022-07-24T15:50:11;32.10;99.90
20750;DHT22;10535;50.664;4.564;2022-07-24T15:52:36;32.00;99.90
20750;DHT22;10535;50.664;4.564;2022-07-24T15:55:02;32.20;99.90
20750;DHT22;10535;50.664;4.564;2022-07-24T15:57:28;32.30;99.90
20750;DHT22;10535;50.664;4.564;2022-07-24T15:59:54;32.40;99.90
20750;DHT22;10535;50.664;4.564;2022-07-24T16:02:21;32.50;99.90
20750;DHT22;10535;50.664;4.564;2022-07-24T16:04:48;32.70;99.90
20750;DHT22;10535;50.664;4.564;2022-07-24T16:07:14;32.40;99.90
20750;DHT22;10535;50.664;4.564;2022-07-24T16:09:42;32.40;99.90
20750;DHT22;10535;50.664;4.564;2022-07-24T16:12:08;32.30;99.90
20750;DHT22;10535;50.664;4.564;2022-07-24T16:14:34;32.40;99.90
20750;DHT22;10535;50.664;4.564;2022-07-24T16:17:00;32.30;99.90
20750;DHT22;10535;50.664;4.564;2022-07-24T16:19:26;32.40;99.90
20750;DHT22;10535;50.664;4.564;2022-07-24T16:21:52;32.30;99.90